Time;durP1;ratioP1;P1;durP2;ratioP2;P2;SDS_P1;SDS_P2;PMS_P1;PMS_P2;Temp;Humidity;BMP_temperature;BMP_pressure;BME280_temperature;BME280_humidity;BME280_pressure;Samples;Min_cycle;Max_cycle;Signal;HPM_P1;HPM_P2
2022/03/27 00:01:56;;;;;;;9.10;5.82;;;;;;;8.12;73.86;103096.19;5032881;28;20036;-87
2022/03/27 00:04:21;;;;;;;10.20;5.75;;;;;;;8.14;74.04;103101.44;5042670;28;20038;-87
2022/03/27 00:06:47;;;;;;;7.93;5.00;;;;;;;8.11;74.12;103098.75;5016166;28;20040;-87
2022/03/27 00:09:12;;;;;;;8.05;5.20;;;;;;;8.09;74.17;103098.75;5031196;28;20521;-87
2022/03/27 00:11:38;;;;;;;9.75;5.50;;;;;;;8.07;74.27;103094.34;5030846;28;20030;-87
2022/03/27 00:14:05;;;;;;;9.15;5.05;;;;;;;8.05;74.73;103105.56;5030375;28;20032;-88
2022/03/27 00:16:31;;;;;;;8.88;5.30;;;;;;;8.04;74.80;103100.34;5029469;28;20036;-87
2022/03/27 00:18:57;;;;;;;10.10;5.05;;;;;;;8.02;74.70;103100.34;5013703;28;20036;-87
2022/03/27 00:21:23;;;;;;;7.70;4.78;;;;;;;8.00;75.20;103099.44;5016025;28;20370;-87
2022/03/27 00:23:52;;;;;;;10.50;5.40;;;;;;;7.99;74.92;103092.50;5033755;28;20036;-87
2022/03/27 00:26:20;;;;;;;10.40;5.38;;;;;;;8.01;74.97;103101.19;5034335;28;20033;-88
2022/03/27 00:28:46;;;;;;;9.93;5.07;;;;;;;8.01;75.15;103098.59;5034635;28;20439;-87
2022/03/27 00:31:12;;;;;;;8.25;4.93;;;;;;;8.01;75.39;103103.78;5034135;28;20017;-87
2022/03/27 00:33:39;;;;;;;9.50;5.28;;;;;;;8.03;75.51;103098.59;5034751;28;20028;-87
2022/03/27 00:36:06;;;;;;;10.23;5.55;;;;;;;8.02;75.47;103096.84;5025601;28;20388;-87
2022/03/27 00:38:32;;;;;;;8.25;5.22;;;;;;;8.00;75.57;103096.84;5044697;28;20038;-88
2022/03/27 00:40:58;;;;;;;9.93;4.95;;;;;;;8.00;75.49;103099.44;5034097;28;20112;-87
2022/03/27 00:43:24;;;;;;;9.65;5.50;;;;;;;7.97;75.33;103101.94;5033459;28;20029;-87
2022/03/27 00:45:50;;;;;;;8.52;5.38;;;;;;;7.93;75.60;103096.66;5034077;28;20090;-87
2022/03/27 00:48:20;;;;;;;9.20;5.38;;;;;;;7.91;75.43;103099.22;5033546;28;20057;-88
2022/03/27 00:50:50;;;;;;;8.93;5.60;;;;;;;7.86;75.61;103104.28;5015123;28;20120;-87
2022/03/27 00:53:17;;;;;;;9.55;5.13;;;;;;;7.84;75.92;103105.13;5033697;28;20484;-87
2022/03/27 00:55:46;;;;;;;9.27;5.30;;;;;;;7.82;76.06;103099.03;5034255;28;20473;-87
2022/03/27 00:58:13;;;;;;;10.23;5.15;;;;;;;7.81;76.22;103098.13;5033327;28;20029;-87
2022/03/27 01:00:38;;;;;;;9.32;5.43;;;;;;;7.80;76.47;103096.38;5037975;28;20028;-87
2022/03/27 01:03:11;;;;;;;8.43;5.10;;;;;;;7.77;76.39;103098.03;5016292;28;20100;-87
2022/03/27 01:05:37;;;;;;;8.15;5.22;;;;;;;7.73;76.15;103099.69;5033228;28;20377;-87
2022/03/27 01:08:05;;;;;;;10.70;5.43;;;;;;;7.69;76.32;103098.72;5036055;28;20097;-87
2022/03/27 01:10:31;;;;;;;9.00;5.07;;;;;;;7.67;76.57;103095.25;5018954;28;20161;-88
2022/03/27 01:12:57;;;;;;;10.23;5.35;;;;;;;7.65;76.47;103093.44;5038076;28;20208;-88
2022/03/27 01:15:41;;;;;;;9.52;5.30;;;;;;;7.63;76.07;103093.41;5016568;28;20025;-87
2022/03/27 01:18:07;;;;;;;9.48;5.53;;;;;;;7.63;76.72;103093.41;5033160;28;20030;-87
2022/03/27 01:20:35;;;;;;;10.52;5.65;;;;;;;7.62;76.95;103086.50;5033065;28;20075;-87
2022/03/27 01:23:01;;;;;;;7.82;5.25;;;;;;;7.63;76.63;103093.41;5033289;28;20075;-87
2022/03/27 01:25:27;;;;;;;9.43;5.80;;;;;;;7.61;76.80;103095.09;5033709;28;20029;-87
2022/03/27 01:27:52;;;;;;;9.35;5.90;;;;;;;7.60;77.30;103088.16;5033223;28;20025;-87
2022/03/27 01:30:17;;;;;;;9.90;6.05;;;;;;;7.58;76.72;103088.13;5032999;28;20515;-87
2022/03/27 01:32:43;;;;;;;10.32;5.85;;;;;;;7.53;76.74;103088.84;5031958;28;20021;-87
2022/03/27 01:35:10;;;;;;;10.13;6.32;;;;;;;7.48;76.90;103093.06;5040044;28;20479;-87
2022/03/27 01:37:36;;;;;;;9.15;5.93;;;;;;;7.43;76.70;103091.22;5038381;28;20118;-87
2022/03/27 01:40:02;;;;;;;11.18;6.10;;;;;;;7.40;76.86;103085.13;5015950;28;20424;-87
2022/03/27 01:42:28;;;;;;;11.50;6.30;;;;;;;7.37;77.28;103091.06;5032567;28;20033;-87
2022/03/27 01:44:53;;;;;;;12.48;5.90;;;;;;;7.35;77.11;103086.72;5014937;28;20017;-88
2022/03/27 01:47:19;;;;;;;10.25;6.13;;;;;;;7.34;77.23;103078.09;5035704;28;20388;-87
2022/03/27 01:49:44;;;;;;;10.88;6.40;;;;;;;7.31;77.56;103084.88;5032485;28;20030;-88
2022/03/27 01:52:09;;;;;;;11.70;6.68;;;;;;;7.28;77.32;103080.50;5032700;28;20029;-87
2022/03/27 01:54:34;;;;;;;12.40;6.85;;;;;;;7.21;77.58;103079.50;5032341;28;20103;-87
2022/03/27 01:57:01;;;;;;;11.40;6.15;;;;;;;7.18;78.04;103081.09;5014658;28;20044;-87
2022/03/27 01:59:26;;;;;;;12.23;6.72;;;;;;;7.17;78.13;103081.97;5032327;28;20033;-88
2022/03/27 02:01:52;;;;;;;10.95;6.90;;;;;;;7.17;78.33;103081.97;5038368;28;20032;-87
2022/03/27 02:04:17;;;;;;;10.02;6.20;;;;;;;7.16;78.57;103082.81;5014313;28;20021;-87
2022/03/27 02:06:43;;;;;;;11.60;6.78;;;;;;;7.19;78.81;103090.63;5032507;28;20025;-88
2022/03/27 02:09:10;;;;;;;12.00;7.07;;;;;;;7.25;78.65;103080.44;5039511;28;20496;-90
2022/03/27 02:11:36;;;;;;;13.55;7.28;;;;;;;7.29;78.51;103083.13;5032974;28;20025;-86
2022/03/27 02:14:01;;;;;;;13.15;7.40;;;;;;;7.34;78.67;103083.25;5015013;28;20041;-88
2022/03/27 02:16:27;;;;;;;12.38;7.50;;;;;;;7.41;78.91;103084.28;5018412;28;20464;-87
2022/03/27 02:18:52;;;;;;;14.25;8.27;;;;;;;7.46;79.09;103079.19;5041861;28;20072;-87
2022/03/27 02:21:17;;;;;;;12.77;7.95;;;;;;;7.51;79.64;103085.38;5035512;28;20040;-87
2022/03/27 02:23:43;;;;;;;15.25;8.88;;;;;;;7.51;79.75;103086.22;5033152;28;20026;-87
2022/03/27 02:26:08;;;;;;;12.40;8.10;;;;;;;7.55;80.41;103094.94;5031897;28;20033;-88
2022/03/27 02:28:33;;;;;;;11.15;7.05;;;;;;;7.59;80.36;103086.41;5031938;28;20057;-87
2022/03/27 02:30:59;;;;;;;10.05;7.03;;;;;;;7.62;79.64;103090.78;5031676;28;20087;-87
2022/03/27 02:33:24;;;;;;;12.10;7.70;;;;;;;7.61;80.41;103089.91;5014349;28;20036;-87
2022/03/27 02:35:50;;;;;;;10.48;7.07;;;;;;;7.59;80.63;103086.41;5031458;28;20054;-87
2022/03/27 02:38:15;;;;;;;11.70;7.57;;;;;;;7.61;80.01;103092.50;5030219;28;20033;-87
2022/03/27 02:40:43;;;;;;;11.05;7.45;;;;;;;7.61;80.10;103097.69;5031619;28;20029;-87
2022/03/27 02:43:12;;;;;;;12.07;8.02;;;;;;;7.60;80.29;103089.03;5013598;28;20028;-87
2022/03/27 02:45:38;;;;;;;12.13;8.30;;;;;;;7.63;80.32;103087.34;5033257;28;20029;-87
2022/03/27 02:48:05;;;;;;;13.73;8.73;;;;;;;7.63;80.50;103084.75;5032118;28;20053;-87
2022/03/27 02:50:30;;;;;;;13.32;8.70;;;;;;;7.60;80.65;103083.84;5031653;28;20065;-87
2022/03/27 02:52:57;;;;;;;13.18;8.55;;;;;;;7.62;80.81;103086.50;5031739;28;20049;-87
2022/03/27 02:55:23;;;;;;;13.63;8.98;;;;;;;7.64;80.90;103092.59;5038744;28;20033;-87
2022/03/27 02:57:49;;;;;;;14.02;9.45;;;;;;;7.66;80.88;103092.59;5034374;28;20260;-87
2022/03/27 03:00:15;;;;;;;13.07;8.65;;;;;;;7.67;80.32;103082.28;5031644;28;20155;-88
2022/03/27 03:02:41;;;;;;;14.43;9.00;;;;;;;7.69;80.82;103083.19;5031104;28;20115;-87
2022/03/27 03:05:07;;;;;;;13.10;8.38;;;;;;;7.70;80.43;103084.94;5031542;28;20041;-87
2022/03/27 03:07:33;;;;;;;13.55;8.85;;;;;;;7.71;80.91;103086.69;5031627;28;20362;-86
2022/03/27 03:10:00;;;;;;;13.55;8.95;;;;;;;7.71;80.81;103076.31;5031197;28;20419;-87
2022/03/27 03:12:26;;;;;;;14.50;8.70;;;;;;;7.72;80.53;103082.38;5018975;28;20048;-87
2022/03/27 03:14:55;;;;;;;14.07;8.55;;;;;;;7.72;80.67;103088.44;5034436;28;20167;-87
2022/03/27 03:17:21;;;;;;;13.93;8.85;;;;;;;7.73;80.41;103079.81;5039775;28;20025;-87
2022/03/27 03:19:46;;;;;;;11.73;8.52;;;;;;;7.73;80.66;103076.38;5035357;28;20120;-87
2022/03/27 03:22:11;;;;;;;13.32;8.80;;;;;;;7.74;80.75;103071.22;5031112;28;20025;-87
2022/03/27 03:24:37;;;;;;;11.35;8.15;;;;;;;7.78;80.75;103071.28;5036356;28;20043;-87
2022/03/27 03:27:03;;;;;;;12.68;8.48;;;;;;;7.79;80.53;103063.53;5034799;28;20032;-87
2022/03/27 03:29:28;;;;;;;12.90;8.70;;;;;;;7.83;80.67;103064.50;5044032;28;20038;-88
2022/03/27 03:31:54;;;;;;;11.95;8.15;;;;;;;7.83;80.34;103060.16;5035971;28;20025;-87
2022/03/27 03:34:19;;;;;;;13.40;8.73;;;;;;;7.84;80.16;103071.44;5038631;28;20041;-87
2022/03/27 03:36:44;;;;;;;12.23;8.68;;;;;;;7.86;80.19;103074.91;5035523;28;20311;-87
2022/03/27 03:39:10;;;;;;;14.30;8.77;;;;;;;7.88;80.37;103073.22;5031250;28;20037;-87
2022/03/27 03:41:35;;;;;;;12.48;8.57;;;;;;;7.89;80.20;103070.69;5031174;28;20033;-87
2022/03/27 03:44:01;;;;;;;13.20;9.25;;;;;;;7.90;80.13;103072.44;5031333;28;20310;-87
2022/03/27 03:46:26;;;;;;;15.38;9.38;;;;;;;7.93;80.31;103070.75;5033378;28;20025;-87
2022/03/27 03:48:51;;;;;;;12.43;8.82;;;;;;;7.90;80.51;103059.47;5030861;28;20480;-87
2022/03/27 03:51:17;;;;;;;14.00;9.63;;;;;;;7.90;80.08;103063.75;5030806;28;20025;-87
2022/03/27 03:53:42;;;;;;;15.23;10.02;;;;;;;7.88;79.98;103062.84;5031142;28;20029;-87
2022/03/27 03:56:08;;;;;;;14.90;10.00;;;;;;;7.84;80.09;103059.34;5033357;28;20030;-87
2022/03/27 03:58:33;;;;;;;17.15;10.88;;;;;;;7.82;80.49;103062.75;5036601;28;20026;-87
2022/03/27 04:00:58;;;;;;;18.48;11.32;;;;;;;7.80;80.31;103064.41;5035068;28;20100;-87
2022/03/27 04:03:24;;;;;;;18.08;11.02;;;;;;;7.79;80.41;103063.53;5034939;28;20105;-87
2022/03/27 04:05:49;;;;;;;17.08;10.75;;;;;;;7.77;80.31;103064.34;5034847;28;20516;-87
2022/03/27 04:08:14;;;;;;;16.23;10.68;;;;;;;7.77;80.47;103072.13;5034686;28;20072;-87
2022/03/27 04:10:41;;;;;;;18.50;10.98;;;;;;;7.73;80.34;103069.47;5034460;28;20786;-87
2022/03/27 04:13:07;;;;;;;17.05;10.45;;;;;;;7.71;80.16;103078.03;5033946;28;20476;-87
2022/03/27 04:15:32;;;;;;;16.30;10.23;;;;;;;7.68;80.13;103071.09;5034987;28;20022;-87
2022/03/27 04:18:00;;;;;;;15.77;9.82;;;;;;;7.61;79.73;103069.19;5034868;28;20021;-87
2022/03/27 04:20:25;;;;;;;14.18;8.85;;;;;;;7.53;79.82;103068.13;5035024;28;20025;-87
2022/03/27 04:22:51;;;;;;;16.02;9.90;;;;;;;7.48;79.96;103070.63;5045327;28;20036;-87
2022/03/27 04:25:16;;;;;;;17.58;10.20;;;;;;;7.44;80.02;103071.38;5034885;28;20040;-87
2022/03/27 04:27:41;;;;;;;17.55;10.55;;;;;;;7.41;79.93;103067.00;5036753;28;20048;-87
2022/03/27 04:30:09;;;;;;;17.75;10.20;;;;;;;7.36;80.49;103072.94;5034497;28;20052;-87
2022/03/27 04:32:35;;;;;;;18.35;10.13;;;;;;;7.33;80.83;103071.16;5042223;28;20461;-87
2022/03/27 04:35:01;;;;;;;20.67;11.10;;;;;;;7.33;80.44;103073.75;5036833;28;20040;-87
2022/03/27 04:37:27;;;;;;;17.60;9.85;;;;;;;7.30;80.41;103071.06;5038200;28;20033;-87
2022/03/27 04:39:52;;;;;;;18.75;10.50;;;;;;;7.27;80.54;103074.44;5038215;28;20025;-87
2022/03/27 04:42:17;;;;;;;19.92;11.00;;;;;;;7.21;80.59;103073.41;5033796;28;20044;-87
2022/03/27 04:44:43;;;;;;;22.92;11.85;;;;;;;7.21;80.84;103074.31;5037109;28;20029;-87
2022/03/27 04:47:08;;;;;;;19.48;10.88;;;;;;;7.14;80.94;103067.22;5034216;28;20064;-86
2022/03/27 04:49:33;;;;;;;20.85;11.00;;;;;;;7.12;81.21;103076.66;5038867;28;20519;-87
2022/03/27 04:51:59;;;;;;;21.17;11.27;;;;;;;7.08;81.35;103073.13;5035642;28;21551;-86
2022/03/27 04:54:24;;;;;;;18.40;10.77;;;;;;;7.07;81.16;103081.72;5035475;28;20100;-87
2022/03/27 04:56:50;;;;;;;20.10;10.63;;;;;;;7.07;81.48;103073.97;5036561;28;20033;-87
2022/03/27 04:59:15;;;;;;;19.60;10.90;;;;;;;7.05;81.88;103091.16;5034945;28;20095;-87
2022/03/27 05:01:41;;;;;;;21.33;11.20;;;;;;;7.02;81.28;103088.50;5035543;28;20441;-87
2022/03/27 05:04:07;;;;;;;19.83;11.25;;;;;;;7.04;81.47;103084.22;5031876;28;20029;-87
2022/03/27 05:06:33;;;;;;;21.70;11.40;;;;;;;7.04;81.92;103092.00;5032233;28;20119;-87
2022/03/27 05:08:58;;;;;;;24.70;12.20;;;;;;;7.06;81.73;103087.75;5015191;28;20515;-87
2022/03/27 05:11:25;;;;;;;23.60;11.50;;;;;;;7.07;81.80;103091.22;5016943;28;20468;-87
2022/03/27 05:13:51;;;;;;;24.58;11.77;;;;;;;7.06;81.65;103087.75;5036891;28;20487;-87
2022/03/27 05:16:16;;;;;;;23.92;11.63;;;;;;;7.04;82.18;103092.00;5034438;28;20029;-87
2022/03/27 05:18:41;;;;;;;21.42;11.50;;;;;;;7.04;81.84;103091.13;5036499;28;20053;-87
2022/03/27 05:21:06;;;;;;;20.30;10.82;;;;;;;7.03;81.93;103095.41;5034057;28;20022;-87
2022/03/27 05:23:32;;;;;;;23.92;11.70;;;;;;;7.03;81.93;103092.84;5034785;28;20395;-87
2022/03/27 05:25:57;;;;;;;23.17;11.63;;;;;;;7.03;82.39;103084.22;5033558;28;20399;-87
2022/03/27 05:28:22;;;;;;;24.63;12.30;;;;;;;7.05;81.65;103098.06;5033574;28;20049;-87
2022/03/27 05:30:48;;;;;;;23.27;11.85;;;;;;;7.01;81.95;103088.47;5035308;28;20040;-87
2022/03/27 05:33:13;;;;;;;25.10;12.52;;;;;;;7.01;82.08;103088.47;5018427;28;20033;-87
2022/03/27 05:35:41;;;;;;;24.33;11.95;;;;;;;7.01;82.10;103089.31;5034901;28;20091;-87
2022/03/27 05:38:06;;;;;;;22.67;12.50;;;;;;;7.01;82.37;103089.31;5014750;28;20480;-87
2022/03/27 05:40:32;;;;;;;24.05;12.63;;;;;;;7.03;81.87;103087.66;5037181;28;20028;-87
2022/03/27 05:42:57;;;;;;;26.65;12.63;;;;;;;7.03;82.55;103092.84;5035096;28;20095;-87
2022/03/27 05:45:23;;;;;;;25.08;12.93;;;;;;;7.03;81.87;103092.84;5034531;28;20031;-87
2022/03/27 05:47:49;;;;;;;27.17;12.80;;;;;;;7.06;82.49;103097.22;5042128;28;20028;-87
2022/03/27 05:50:15;;;;;;;29.10;13.70;;;;;;;7.08;82.04;103088.66;5036161;28;20040;-87
2022/03/27 05:52:43;;;;;;;28.27;13.27;;;;;;;7.08;82.27;103098.16;5033459;28;20021;-87
2022/03/27 05:55:09;;;;;;;31.00;14.15;;;;;;;7.08;82.29;103096.44;5035668;28;20091;-87
2022/03/27 05:57:34;;;;;;;32.88;14.52;;;;;;;7.09;81.98;103103.34;5041814;28;20037;-87
2022/03/27 05:59:59;;;;;;;30.58;14.02;;;;;;;7.07;82.49;103107.63;5032181;28;20052;-87
2022/03/27 06:02:24;;;;;;;32.70;15.90;;;;;;;7.10;82.09;103107.69;5035429;28;20041;-87
2022/03/27 06:04:51;;;;;;;30.98;14.73;;;;;;;7.10;82.49;103109.38;5031529;28;20036;-87
2022/03/27 06:07:16;;;;;;;32.28;15.27;;;;;;;7.08;82.58;103111.94;5032444;28;20052;-87
2022/03/27 06:09:42;;;;;;;33.47;15.55;;;;;;;7.05;82.20;103114.47;5031813;28;20661;-87
2022/03/27 06:12:07;;;;;;;31.67;15.82;;;;;;;7.06;82.13;103117.94;5032767;28;20037;-87
2022/03/27 06:14:33;;;;;;;32.33;15.18;;;;;;;7.05;82.51;103118.78;5036374;28;20029;-87
2022/03/27 06:16:58;;;;;;;30.80;14.70;;;;;;;7.05;82.69;103123.94;5033466;28;20036;-87
2022/03/27 06:19:23;;;;;;;30.08;13.93;;;;;;;7.05;83.10;103121.38;5031533;28;20049;-87
2022/03/27 06:21:49;;;;;;;34.50;15.02;;;;;;;7.08;82.62;103135.25;5032514;28;20473;-87
2022/03/27 06:24:14;;;;;;;25.70;12.80;;;;;;;7.07;82.43;103125.72;5032394;28;20037;-87
2022/03/27 06:26:40;;;;;;;29.58;13.52;;;;;;;7.07;82.86;103128.31;5031965;28;20043;-87
2022/03/27 06:29:09;;;;;;;26.25;12.98;;;;;;;7.11;82.21;103127.56;5013602;28;20157;-88
2022/03/27 06:31:35;;;;;;;28.20;13.48;;;;;;;7.16;81.98;103137.19;5012814;28;20026;-87
2022/03/27 06:34:00;;;;;;;27.35;12.68;;;;;;;7.17;81.96;103128.56;5031698;28;20037;-87
2022/03/27 06:36:25;;;;;;;23.77;11.57;;;;;;;7.18;81.90;103131.19;5031780;28;20025;-87
2022/03/27 06:38:51;;;;;;;25.40;12.18;;;;;;;7.21;81.86;103136.44;5015726;28;20116;-86
2022/03/27 06:41:16;;;;;;;24.98;12.82;;;;;;;7.22;81.66;103132.13;5037184;28;20071;-87
2022/03/27 06:43:41;;;;;;;23.98;12.18;;;;;;;7.23;81.61;103141.66;5031437;28;20025;-87
2022/03/27 06:46:07;;;;;;;23.40;11.98;;;;;;;7.26;81.77;103133.97;5031430;28;20033;-87
2022/03/27 06:48:32;;;;;;;22.73;11.63;;;;;;;7.26;80.94;103133.97;5031258;28;20036;-87
2022/03/27 06:50:57;;;;;;;22.23;11.23;;;;;;;7.27;81.03;103135.72;5031655;28;20025;-87
2022/03/27 06:53:24;;;;;;;21.95;10.73;;;;;;;7.29;80.83;103128.88;5031636;28;20034;-87
2022/03/27 06:55:50;;;;;;;23.50;11.93;;;;;;;7.32;81.11;103139.31;5031204;28;20076;-87
2022/03/27 06:58:16;;;;;;;22.42;12.00;;;;;;;7.35;80.67;103131.59;5031314;28;20029;-87
2022/03/27 07:03:25;;;;;;;22.80;11.43;;;;;;;7.38;80.17;103123.91;5035090;28;20507;-87
2022/03/27 07:05:51;;;;;;;22.35;11.68;;;;;;;7.38;80.12;103128.22;5033885;28;20025;-87
2022/03/27 07:08:17;;;;;;;26.35;12.05;;;;;;;7.39;80.41;103132.56;5033637;28;20033;-87
2022/03/27 07:10:44;;;;;;;23.75;11.88;;;;;;;7.36;80.05;103133.34;5013380;28;20036;-87
2022/03/27 07:13:11;;;;;;;23.48;11.65;;;;;;;7.37;80.00;103126.47;5031059;28;20040;-87
2022/03/27 07:15:38;;;;;;;23.30;12.18;;;;;;;7.38;80.71;103128.22;5037789;28;20495;-86
2022/03/27 07:18:05;;;;;;;23.88;12.25;;;;;;;7.40;80.08;103134.31;5038150;28;20124;-85
2022/03/27 07:20:32;;;;;;;23.35;11.20;;;;;;;7.40;79.92;103132.59;5017204;28;20028;-86
2022/03/27 07:23:01;;;;;;;23.73;11.32;;;;;;;7.38;79.59;103134.25;5037272;28;20041;-86
2022/03/27 07:25:27;;;;;;;24.08;11.82;;;;;;;7.39;80.17;103138.59;5036570;28;20037;-86
2022/03/27 07:27:54;;;;;;;23.50;12.43;;;;;;;7.41;79.39;103131.75;5039857;28;20040;-87
2022/03/27 07:30:19;;;;;;;27.08;13.52;;;;;;;7.42;79.46;103132.66;5040648;28;20471;-87
2022/03/27 07:32:45;;;;;;;29.77;13.00;;;;;;;7.47;79.44;103137.94;5043570;28;20051;-87
2022/03/27 07:35:14;;;;;;;21.92;11.95;;;;;;;7.48;79.53;103140.53;5044124;28;20388;-88
2022/03/27 07:37:41;;;;;;;24.08;12.07;;;;;;;7.49;79.15;103131.94;5024161;28;20040;-87
2022/03/27 07:40:08;;;;;;;20.60;10.82;;;;;;;7.50;79.37;103135.44;5025299;28;20037;-85
2022/03/27 07:42:37;;;;;;;23.73;10.82;;;;;;;7.53;78.78;103135.47;5041196;28;20025;-85
2022/03/27 07:45:04;;;;;;;20.35;10.80;;;;;;;7.53;78.96;103135.47;5044644;28;20042;-86
2022/03/27 07:47:30;;;;;;;18.63;10.07;;;;;;;7.49;78.33;103142.31;5043231;28;20094;-86
2022/03/27 07:49:55;;;;;;;20.58;10.02;;;;;;;7.45;78.87;103135.28;5043065;28;20068;-86
2022/03/27 07:52:22;;;;;;;17.77;9.15;;;;;;;7.44;78.71;103138.72;5042402;28;20115;-86
2022/03/27 07:54:47;;;;;;;17.58;9.20;;;;;;;7.42;78.39;103136.09;5040302;28;20033;-85
2022/03/27 07:57:13;;;;;;;16.60;8.48;;;;;;;7.44;79.07;103141.31;5042006;28;20036;-86
2022/03/27 07:59:38;;;;;;;15.15;8.60;;;;;;;7.48;78.64;103140.53;5041373;28;20071;-85
2022/03/27 08:02:04;;;;;;;19.15;9.60;;;;;;;7.51;78.78;103137.19;5039484;28;20029;-84
2022/03/27 08:04:30;;;;;;;19.02;10.02;;;;;;;7.49;78.99;103136.25;5038355;28;20037;-86
2022/03/27 08:06:55;;;;;;;17.42;9.50;;;;;;;7.52;78.67;103139.78;5023426;28;20029;-87
2022/03/27 08:09:20;;;;;;;17.35;9.30;;;;;;;7.57;78.76;103138.19;5036636;28;20036;-86
2022/03/27 08:11:46;;;;;;;18.10;10.13;;;;;;;7.59;78.89;103131.34;5039649;28;20071;-87
2022/03/27 08:14:11;;;;;;;18.88;9.82;;;;;;;7.60;78.54;103134.78;5047824;28;20078;-87
2022/03/27 08:16:37;;;;;;;19.42;9.35;;;;;;;7.64;78.70;103134.03;5043838;28;20438;-84
2022/03/27 08:19:03;;;;;;;19.98;10.10;;;;;;;7.67;78.53;103141.00;5039363;28;20123;-84
2022/03/27 08:21:29;;;;;;;18.77;9.68;;;;;;;7.67;79.08;103136.69;5044402;28;20624;-87
2022/03/27 08:23:54;;;;;;;20.15;9.95;;;;;;;7.69;78.68;103135.00;5043862;28;20044;-86
2022/03/27 08:29:04;;;;;;;18.92;9.20;;;;;;;7.76;78.16;103138.63;5040751;28;20059;-87
2022/03/27 08:31:33;;;;;;;17.50;9.65;;;;;;;7.74;78.19;103136.00;5041493;28;20029;-87
2022/03/27 08:33:59;;;;;;;16.65;9.13;;;;;;;7.77;78.24;103139.50;5036665;28;20040;-86
2022/03/27 08:36:27;;;;;;;17.67;9.13;;;;;;;7.78;78.20;103142.09;5042487;28;20033;-86
2022/03/27 08:38:53;;;;;;;17.05;9.48;;;;;;;7.79;78.08;103143.84;5022504;28;20029;-86
2022/03/27 08:41:21;;;;;;;18.75;9.23;;;;;;;7.83;78.40;103150.88;5039991;28;20026;-86
2022/03/27 08:43:47;;;;;;;18.80;9.68;;;;;;;7.93;78.09;103153.69;5041006;28;20123;-84
2022/03/27 08:46:16;;;;;;;17.10;8.68;;;;;;;7.96;77.82;103138.19;5042815;28;20432;-86
2022/03/27 08:48:44;;;;;;;18.08;9.32;;;;;;;8.02;77.96;103138.34;5041377;28;20384;-87
2022/03/27 08:51:33;;;;;;;16.42;8.75;;;;;;;8.07;77.46;103138.41;5024333;28;20037;-88
2022/03/27 08:54:05;;;;;;;17.73;8.68;;;;;;;8.13;77.11;103146.34;5040531;28;20116;-85
2022/03/27 08:56:32;;;;;;;16.77;9.48;;;;;;;8.16;76.79;103149.88;5037292;28;20029;-86
2022/03/27 08:59:03;;;;;;;16.90;9.27;;;;;;;8.18;76.60;103149.94;5040948;28;20111;-86
2022/03/27 09:01:29;;;;;;;17.52;9.63;;;;;;;8.19;76.48;103146.50;5042410;28;20479;-87
2022/03/27 09:03:54;;;;;;;14.80;8.60;;;;;;;8.22;76.15;103151.72;5023697;28;20107;-87
2022/03/27 09:06:21;;;;;;;16.73;8.88;;;;;;;8.19;76.25;103151.69;5039238;28;20044;-83
2022/03/27 09:08:48;;;;;;;17.65;10.02;;;;;;;8.22;76.07;103156.03;5014740;28;20106;-83
2022/03/27 09:11:18;;;;;;;16.17;8.93;;;;;;;8.24;75.93;103157.81;5038865;28;20539;-85
2022/03/27 09:13:48;;;;;;;15.98;8.82;;;;;;;8.28;75.85;103151.84;5038615;28;20115;-86
2022/03/27 09:16:14;;;;;;;16.08;9.10;;;;;;;8.35;75.74;103153.75;5041819;28;20040;-87
2022/03/27 09:18:55;;;;;;;16.63;9.63;;;;;;;8.37;75.42;103150.31;5037742;28;20033;-84
2022/03/27 09:21:23;;;;;;;15.32;8.98;;;;;;;8.31;75.68;103149.34;5038385;28;20173;-85
2022/03/27 09:23:59;;;;;;;16.05;9.27;;;;;;;8.30;75.61;103139.81;5040643;28;20037;-86
2022/03/27 09:26:26;;;;;;;18.63;9.32;;;;;;;8.29;75.86;103151.03;5040879;28;20043;-86
2022/03/27 09:28:54;;;;;;;16.67;9.85;;;;;;;8.25;76.24;103151.78;5040398;28;21105;-87
2022/03/27 09:31:27;;;;;;;16.60;9.43;;;;;;;8.28;75.87;103136.31;5041456;28;20064;-87
2022/03/27 09:33:55;;;;;;;17.38;9.45;;;;;;;8.32;76.70;103143.31;5041376;28;20074;-87
2022/03/27 09:36:29;;;;;;;16.95;9.35;;;;;;;8.34;75.36;103136.44;5038951;28;20031;-85
2022/03/27 09:39:27;;;;;;;16.40;9.38;;;;;;;8.34;75.08;103136.44;5041040;28;20063;-86
2022/03/27 09:41:54;;;;;;;14.93;9.20;;;;;;;8.36;75.21;103131.28;4999708;28;20047;-86
2022/03/27 09:44:34;;;;;;;16.90;9.40;;;;;;;8.38;75.61;103131.28;5040756;28;20029;-85
2022/03/27 09:47:05;;;;;;;16.65;10.15;;;;;;;8.43;76.04;103129.66;5039469;28;20039;-86
2022/03/27 09:49:30;;;;;;;16.35;9.45;;;;;;;8.49;75.82;103128.09;5042230;28;20060;-86
2022/03/27 09:52:04;;;;;;;20.60;10.52;;;;;;;8.54;75.75;103123.00;5041163;28;20032;-86
2022/03/27 09:55:03;;;;;;;17.27;9.73;;;;;;;8.59;75.33;103120.53;5038812;28;20021;-86
2022/03/27 09:57:38;;;;;;;16.70;9.88;;;;;;;8.68;75.05;103123.28;5040911;28;20041;-85
2022/03/27 10:00:14;;;;;;;16.70;9.52;;;;;;;8.73;74.92;103112.97;5037687;28;20029;-84
2022/03/27 10:02:41;;;;;;;16.38;9.88;;;;;;;8.76;74.49;103118.22;5038333;28;20388;-86
2022/03/27 10:05:14;;;;;;;16.48;9.77;;;;;;;8.76;74.16;103111.34;5039971;28;20047;-87
2022/03/27 10:07:45;;;;;;;16.02;9.27;;;;;;;8.80;74.32;103105.31;5041775;28;20033;-88
2022/03/27 10:10:13;;;;;;;16.20;9.60;;;;;;;8.88;74.76;103102.88;5043671;28;20067;-86
2022/03/27 10:12:40;;;;;;;16.20;9.60;;;;;;;8.95;73.83;103104.75;5043287;28;20055;-87
2022/03/27 10:15:07;;;;;;;15.10;9.27;;;;;;;9.03;73.78;103091.91;5039155;28;20040;-86
2022/03/27 10:17:35;;;;;;;15.80;9.55;;;;;;;9.06;72.58;103096.25;5038513;28;20035;-85
2022/03/27 10:20:08;;;;;;;16.15;9.27;;;;;;;9.12;73.26;103091.19;5039253;28;20041;-86
2022/03/27 10:22:39;;;;;;;15.75;9.45;;;;;;;9.17;72.95;103083.44;5039567;28;21319;-86
2022/03/27 10:25:05;;;;;;;15.32;9.43;;;;;;;9.24;72.83;103086.16;5035857;28;20037;-86
2022/03/27 10:27:33;;;;;;;16.55;9.77;;;;;;;9.32;72.97;103088.03;5035604;28;20504;-87
2022/03/27 10:29:59;;;;;;;15.65;9.55;;;;;;;9.41;74.29;103072.56;5036525;28;20068;-88
2022/03/27 10:32:25;;;;;;;17.48;9.55;;;;;;;9.54;73.59;103076.22;5018780;28;20071;-88
2022/03/27 10:35:16;;;;;;;15.68;9.63;;;;;;;9.62;72.42;103073.75;5037457;28;20041;-88
2022/03/27 10:37:53;;;;;;;15.30;9.37;;;;;;;9.65;71.41;103076.41;4977726;28;20036;-86
2022/03/27 10:40:56;;;;;;;19.30;10.48;;;;;;;9.72;71.71;103070.44;5038872;28;20029;-86
2022/03/27 10:43:24;;;;;;;14.93;9.55;;;;;;;9.79;72.06;103064.47;5037806;28;20043;-86
2022/03/27 10:46:16;;;;;;;15.63;9.23;;;;;;;9.91;72.02;103068.06;5035807;28;20510;-86
2022/03/27 10:48:43;;;;;;;13.98;9.18;;;;;;;10.00;70.25;103058.66;5036728;28;20041;-86
2022/03/27 10:51:12;;;;;;;13.95;8.40;;;;;;;10.07;70.37;103048.34;5038810;28;20039;-86
2022/03/27 10:53:38;;;;;;;13.75;8.70;;;;;;;10.12;69.90;103057.94;5035008;28;20036;-86
2022/03/27 10:56:04;;;;;;;15.82;9.05;;;;;;;10.17;69.20;103051.06;5036889;28;20021;-85
2022/03/27 10:58:29;;;;;;;13.90;8.70;;;;;;;10.25;68.58;103058.06;5038034;28;20052;-88
2022/03/27 11:00:55;;;;;;;14.93;8.68;;;;;;;10.31;69.43;103052.94;5034867;28;20037;-87
2022/03/27 11:03:42;;;;;;;13.82;8.25;;;;;;;10.41;69.82;103049.63;5036823;28;20105;-87
2022/03/27 11:06:26;;;;;;;12.57;7.68;;;;;;;10.53;68.26;103042.81;5037152;28;20036;-87
2022/03/27 11:08:54;;;;;;;15.45;9.35;;;;;;;10.66;68.46;103044.66;5035722;28;20554;-87
2022/03/27 11:11:37;;;;;;;14.38;8.50;;;;;;;10.76;68.31;103046.47;5035713;28;20041;-87
2022/03/27 11:14:04;;;;;;;12.65;7.80;;;;;;;10.87;67.05;103037.91;5039992;28;20021;-87
2022/03/27 11:16:30;;;;;;;14.63;8.75;;;;;;;10.93;64.73;103036.22;5036479;28;20056;-86
2022/03/27 11:18:56;;;;;;;13.10;7.70;;;;;;;11.01;65.48;103030.22;5038252;28;20036;-90
2022/03/27 11:21:27;;;;;;;12.23;7.72;;;;;;;11.11;64.73;103026.81;5037516;28;20029;-90
2022/03/27 11:24:18;;;;;;;11.85;7.82;;;;;;;11.20;64.67;103026.00;5020301;28;20037;-87
2022/03/27 11:26:44;;;;;;;12.55;7.78;;;;;;;11.27;63.10;103025.19;5025951;28;20049;-86
2022/03/27 11:29:23;;;;;;;12.50;6.75;;;;;;;11.37;63.63;103019.16;5039622;28;20055;-86